sensor_id;sensor_type;location;lat;lon;timestamp;P1;durP1;ratioP1;P2;durP2;ratioP2
60979;SDS011;46851;49.160;8.980;2023-09-08T00:00:12;6.65;;;4.65;;
60979;SDS011;46851;49.160;8.980;2023-09-08T00:02:38;8.43;;;5.05;;
60979;SDS011;46851;49.160;8.980;2023-09-08T00:05:04;7.65;;;4.85;;
60979;SDS011;46851;49.160;8.980;2023-09-08T00:07:30;8.80;;;4.97;;
60979;SDS011;46851;49.160;8.980;2023-09-08T00:09:56;16.98;;;4.80;;
60979;SDS011;46851;49.160;8.980;2023-09-08T00:12:22;7.43;;;4.90;;
60979;SDS011;46851;49.160;8.980;2023-09-08T00:14:48;8.40;;;4.82;;
60979;SDS011;46851;49.160;8.980;2023-09-08T00:17:14;7.50;;;4.93;;
60979;SDS011;46851;49.160;8.980;2023-09-08T00:19:40;8.88;;;4.97;;
60979;SDS011;46851;49.160;8.980;2023-09-08T00:22:06;11.82;;;5.28;;
60979;SDS011;46851;49.160;8.980;2023-09-08T00:24:33;7.88;;;5.07;;
60979;SDS011;46851;49.160;8.980;2023-09-08T00:26:59;8.68;;;5.30;;
60979;SDS011;46851;49.160;8.980;2023-09-08T00:29:25;9.25;;;5.15;;
60979;SDS011;46851;49.160;8.980;2023-09-08T00:31:51;9.82;;;5.30;;
60979;SDS011;46851;49.160;8.980;2023-09-08T00:34:17;7.35;;;4.72;;
60979;SDS011;46851;49.160;8.980;2023-09-08T00:36:43;11.23;;;5.82;;
60979;SDS011;46851;49.160;8.980;2023-09-08T00:39:09;10.70;;;5.40;;
60979;SDS011;46851;49.160;8.980;2023-09-08T00:41:35;10.20;;;4.95;;
60979;SDS011;46851;49.160;8.980;2023-09-08T00:44:01;11.63;;;5.18;;
60979;SDS011;46851;49.160;8.980;2023-09-08T00:46:27;7.47;;;5.22;;
60979;SDS011;46851;49.160;8.980;2023-09-08T00:48:53;9.95;;;5.47;;
60979;SDS011;46851;49.160;8.980;2023-09-08T00:51:20;8.98;;;5.40;;
60979;SDS011;46851;49.160;8.980;2023-09-08T00:53:47;9.80;;;4.93;;
60979;SDS011;46851;49.160;8.980;2023-09-08T00:56:13;6.55;;;4.85;;
60979;SDS011;46851;49.160;8.980;2023-09-08T00:58:39;8.98;;;5.43;;
60979;SDS011;46851;49.160;8.980;2023-09-08T01:01:05;8.63;;;5.25;;
60979;SDS011;46851;49.160;8.980;2023-09-08T01:03:31;8.70;;;4.93;;
60979;SDS011;46851;49.160;8.980;2023-09-08T01:05:57;8.73;;;5.60;;
60979;SDS011;46851;49.160;8.980;2023-09-08T01:08:24;11.15;;;5.78;;
60979;SDS011;46851;49.160;8.980;2023-09-08T01:10:50;8.82;;;5.13;;
60979;SDS011;46851;49.160;8.980;2023-09-08T01:13:17;8.35;;;5.30;;
60979;SDS011;46851;49.160;8.980;2023-09-08T01:15:43;12.57;;;5.57;;
60979;SDS011;46851;49.160;8.980;2023-09-08T01:18:09;12.15;;;5.70;;
60979;SDS011;46851;49.160;8.980;2023-09-08T01:20:39;8.60;;;5.25;;
60979;SDS011;46851;49.160;8.980;2023-09-08T01:23:17;9.68;;;5.45;;
60979;SDS011;46851;49.160;8.980;2023-09-08T01:25:51;9.10;;;5.97;;
60979;SDS011;46851;49.160;8.980;2023-09-08T01:28:18;9.73;;;5.60;;
60979;SDS011;46851;49.160;8.980;2023-09-08T01:30:46;9.98;;;5.53;;
60979;SDS011;46851;49.160;8.980;2023-09-08T01:36:25;9.48;;;6.00;;
60979;SDS011;46851;49.160;8.980;2023-09-08T01:38:51;7.95;;;5.68;;
60979;SDS011;46851;49.160;8.980;2023-09-08T01:41:17;7.80;;;5.50;;
60979;SDS011;46851;49.160;8.980;2023-09-08T01:43:43;10.80;;;5.47;;
60979;SDS011;46851;49.160;8.980;2023-09-08T01:46:09;11.43;;;5.88;;
60979;SDS011;46851;49.160;8.980;2023-09-08T01:48:35;10.48;;;6.13;;
60979;SDS011;46851;49.160;8.980;2023-09-08T01:51:01;7.97;;;5.47;;
60979;SDS011;46851;49.160;8.980;2023-09-08T01:53:27;8.25;;;5.47;;
60979;SDS011;46851;49.160;8.980;2023-09-08T01:55:53;7.15;;;4.80;;
60979;SDS011;46851;49.160;8.980;2023-09-08T01:58:19;9.60;;;5.38;;
60979;SDS011;46851;49.160;8.980;2023-09-08T02:00:48;9.30;;;5.38;;
60979;SDS011;46851;49.160;8.980;2023-09-08T02:03:14;17.15;;;7.03;;
60979;SDS011;46851;49.160;8.980;2023-09-08T02:05:40;8.85;;;5.78;;
60979;SDS011;46851;49.160;8.980;2023-09-08T02:08:06;9.30;;;5.78;;
60979;SDS011;46851;49.160;8.980;2023-09-08T02:10:32;8.68;;;5.50;;
60979;SDS011;46851;49.160;8.980;2023-09-08T02:12:58;13.32;;;5.97;;
60979;SDS011;46851;49.160;8.980;2023-09-08T02:15:24;9.15;;;5.70;;
60979;SDS011;46851;49.160;8.980;2023-09-08T02:17:52;10.48;;;5.55;;
60979;SDS011;46851;49.160;8.980;2023-09-08T02:20:19;9.95;;;5.55;;
60979;SDS011;46851;49.160;8.980;2023-09-08T02:22:45;8.57;;;5.40;;
60979;SDS011;46851;49.160;8.980;2023-09-08T02:25:15;11.57;;;5.55;;
60979;SDS011;46851;49.160;8.980;2023-09-08T02:27:42;7.78;;;5.50;;
60979;SDS011;46851;49.160;8.980;2023-09-08T02:30:08;10.82;;;5.43;;
60979;SDS011;46851;49.160;8.980;2023-09-08T02:32:34;8.50;;;5.78;;
60979;SDS011;46851;49.160;8.980;2023-09-08T02:35:00;8.43;;;5.75;;
60979;SDS011;46851;49.160;8.980;2023-09-08T02:37:26;8.95;;;5.55;;
60979;SDS011;46851;49.160;8.980;2023-09-08T02:39:52;9.90;;;6.05;;
60979;SDS011;46851;49.160;8.980;2023-09-08T02:42:18;9.30;;;5.65;;
60979;SDS011;46851;49.160;8.980;2023-09-08T02:44:44;8.18;;;5.43;;
60979;SDS011;46851;49.160;8.980;2023-09-08T02:47:10;8.75;;;5.38;;
60979;SDS011;46851;49.160;8.980;2023-09-08T02:49:36;10.77;;;5.72;;
60979;SDS011;46851;49.160;8.980;2023-09-08T02:52:02;8.63;;;6.03;;
60979;SDS011;46851;49.160;8.980;2023-09-08T02:54:29;9.13;;;5.68;;
60979;SDS011;46851;49.160;8.980;2023-09-08T02:56:55;9.20;;;5.78;;
60979;SDS011;46851;49.160;8.980;2023-09-08T02:59:21;8.80;;;6.13;;
60979;SDS011;46851;49.160;8.980;2023-09-08T03:01:47;9.60;;;5.70;;
60979;SDS011;46851;49.160;8.980;2023-09-08T03:04:13;10.43;;;6.00;;
60979;SDS011;46851;49.160;8.980;2023-09-08T03:06:39;9.20;;;5.07;;
60979;SDS011;46851;49.160;8.980;2023-09-08T03:09:05;8.65;;;5.30;;
60979;SDS011;46851;49.160;8.980;2023-09-08T03:11:30;9.05;;;5.70;;
60979;SDS011;46851;49.160;8.980;2023-09-08T03:13:56;11.93;;;5.80;;
60979;SDS011;46851;49.160;8.980;2023-09-08T03:16:22;10.27;;;5.85;;
60979;SDS011;46851;49.160;8.980;2023-09-08T03:18:48;10.48;;;6.88;;
60979;SDS011;46851;49.160;8.980;2023-09-08T03:21:14;8.68;;;5.90;;
60979;SDS011;46851;49.160;8.980;2023-09-08T03:23:41;8.95;;;5.78;;
60979;SDS011;46851;49.160;8.980;2023-09-08T03:26:07;7.32;;;5.55;;
60979;SDS011;46851;49.160;8.980;2023-09-08T03:28:34;8.18;;;5.95;;
60979;SDS011;46851;49.160;8.980;2023-09-08T03:31:00;11.93;;;6.90;;
60979;SDS011;46851;49.160;8.980;2023-09-08T03:33:26;8.93;;;6.05;;
60979;SDS011;46851;49.160;8.980;2023-09-08T03:35:52;7.80;;;5.78;;
60979;SDS011;46851;49.160;8.980;2023-09-08T03:38:18;9.50;;;5.95;;
60979;SDS011;46851;49.160;8.980;2023-09-08T03:40:44;12.95;;;6.53;;
60979;SDS011;46851;49.160;8.980;2023-09-08T03:43:10;11.43;;;6.72;;
60979;SDS011;46851;49.160;8.980;2023-09-08T03:45:36;12.98;;;7.00;;
60979;SDS011;46851;49.160;8.980;2023-09-08T03:48:02;11.90;;;6.78;;
60979;SDS011;46851;49.160;8.980;2023-09-08T03:50:29;10.05;;;6.60;;
60979;SDS011;46851;49.160;8.980;2023-09-08T03:52:55;10.25;;;6.50;;
60979;SDS011;46851;49.160;8.980;2023-09-08T03:55:21;10.25;;;6.28;;
60979;SDS011;46851;49.160;8.980;2023-09-08T03:57:47;8.52;;;6.20;;
60979;SDS011;46851;49.160;8.980;2023-09-08T04:00:13;10.32;;;6.25;;
60979;SDS011;46851;49.160;8.980;2023-09-08T04:02:45;8.25;;;6.03;;
60979;SDS011;46851;49.160;8.980;2023-09-08T04:05:11;9.93;;;6.45;;
60979;SDS011;46851;49.160;8.980;2023-09-08T04:07:37;10.50;;;6.88;;
60979;SDS011;46851;49.160;8.980;2023-09-08T04:10:03;12.25;;;6.60;;
60979;SDS011;46851;49.160;8.980;2023-09-08T04:12:29;10.73;;;6.35;;
60979;SDS011;46851;49.160;8.980;2023-09-08T04:14:55;8.38;;;5.70;;
60979;SDS011;46851;49.160;8.980;2023-09-08T04:17:21;13.45;;;7.25;;
60979;SDS011;46851;49.160;8.980;2023-09-08T04:19:47;12.48;;;6.45;;
60979;SDS011;46851;49.160;8.980;2023-09-08T04:22:13;10.38;;;6.85;;
60979;SDS011;46851;49.160;8.980;2023-09-08T04:24:39;9.90;;;6.18;;
60979;SDS011;46851;49.160;8.980;2023-09-08T04:27:05;10.95;;;6.35;;
60979;SDS011;46851;49.160;8.980;2023-09-08T04:29:33;11.50;;;7.07;;
60979;SDS011;46851;49.160;8.980;2023-09-08T04:31:59;8.55;;;6.25;;
60979;SDS011;46851;49.160;8.980;2023-09-08T04:34:25;9.05;;;6.18;;
60979;SDS011;46851;49.160;8.980;2023-09-08T04:36:51;9.90;;;7.13;;
60979;SDS011;46851;49.160;8.980;2023-09-08T04:39:17;12.55;;;6.97;;
60979;SDS011;46851;49.160;8.980;2023-09-08T04:41:43;12.70;;;6.80;;
60979;SDS011;46851;49.160;8.980;2023-09-08T04:44:09;12.68;;;7.05;;
60979;SDS011;46851;49.160;8.980;2023-09-08T04:46:35;11.93;;;7.05;;
60979;SDS011;46851;49.160;8.980;2023-09-08T04:49:01;11.07;;;7.22;;
60979;SDS011;46851;49.160;8.980;2023-09-08T04:51:27;13.52;;;6.80;;
60979;SDS011;46851;49.160;8.980;2023-09-08T04:53:53;10.90;;;6.50;;
60979;SDS011;46851;49.160;8.980;2023-09-08T04:56:19;14.98;;;7.57;;
60979;SDS011;46851;49.160;8.980;2023-09-08T04:58:45;13.38;;;7.47;;
60979;SDS011;46851;49.160;8.980;2023-09-08T05:01:11;9.98;;;6.75;;
60979;SDS011;46851;49.160;8.980;2023-09-08T05:03:37;10.07;;;6.93;;
60979;SDS011;46851;49.160;8.980;2023-09-08T05:06:03;9.73;;;6.72;;
60979;SDS011;46851;49.160;8.980;2023-09-08T05:08:29;13.95;;;7.47;;
60979;SDS011;46851;49.160;8.980;2023-09-08T05:10:55;11.30;;;7.25;;
60979;SDS011;46851;49.160;8.980;2023-09-08T05:13:21;15.25;;;7.80;;
60979;SDS011;46851;49.160;8.980;2023-09-08T05:15:51;11.55;;;7.93;;
60979;SDS011;46851;49.160;8.980;2023-09-08T05:18:24;12.23;;;7.70;;
60979;SDS011;46851;49.160;8.980;2023-09-08T05:20:50;13.63;;;7.60;;
60979;SDS011;46851;49.160;8.980;2023-09-08T05:23:16;9.95;;;6.95;;
60979;SDS011;46851;49.160;8.980;2023-09-08T05:25:42;12.55;;;7.53;;
60979;SDS011;46851;49.160;8.980;2023-09-08T05:28:08;11.57;;;7.70;;
60979;SDS011;46851;49.160;8.980;2023-09-08T05:30:34;9.07;;;6.75;;
60979;SDS011;46851;49.160;8.980;2023-09-08T05:33:00;10.45;;;6.93;;
60979;SDS011;46851;49.160;8.980;2023-09-08T05:35:26;12.25;;;7.45;;
60979;SDS011;46851;49.160;8.980;2023-09-08T05:37:52;12.05;;;7.18;;
60979;SDS011;46851;49.160;8.980;2023-09-08T05:40:18;10.48;;;6.53;;
60979;SDS011;46851;49.160;8.980;2023-09-08T05:42:46;11.93;;;6.43;;
60979;SDS011;46851;49.160;8.980;2023-09-08T05:45:12;12.10;;;7.20;;
60979;SDS011;46851;49.160;8.980;2023-09-08T05:47:38;13.40;;;6.88;;
60979;SDS011;46851;49.160;8.980;2023-09-08T05:50:04;11.60;;;7.28;;
60979;SDS011;46851;49.160;8.980;2023-09-08T05:52:30;11.10;;;6.13;;
60979;SDS011;46851;49.160;8.980;2023-09-08T05:54:58;9.25;;;6.72;;
60979;SDS011;46851;49.160;8.980;2023-09-08T05:57:24;10.00;;;6.32;;
60979;SDS011;46851;49.160;8.980;2023-09-08T05:59:50;10.13;;;6.47;;
60979;SDS011;46851;49.160;8.980;2023-09-08T06:02:16;10.27;;;6.50;;
60979;SDS011;46851;49.160;8.980;2023-09-08T06:04:42;9.60;;;5.63;;
60979;SDS011;46851;49.160;8.980;2023-09-08T06:07:08;10.43;;;7.13;;
60979;SDS011;46851;49.160;8.980;2023-09-08T06:09:34;12.75;;;6.75;;
60979;SDS011;46851;49.160;8.980;2023-09-08T06:12:00;10.32;;;6.93;;
60979;SDS011;46851;49.160;8.980;2023-09-08T06:14:26;9.77;;;6.80;;
60979;SDS011;46851;49.160;8.980;2023-09-08T06:16:52;9.73;;;6.10;;
60979;SDS011;46851;49.160;8.980;2023-09-08T06:19:18;11.05;;;6.55;;
60979;SDS011;46851;49.160;8.980;2023-09-08T06:21:44;9.68;;;5.95;;
60979;SDS011;46851;49.160;8.980;2023-09-08T06:24:10;8.93;;;5.88;;
60979;SDS011;46851;49.160;8.980;2023-09-08T06:26:36;9.20;;;5.25;;
60979;SDS011;46851;49.160;8.980;2023-09-08T06:29:03;7.45;;;4.97;;
60979;SDS011;46851;49.160;8.980;2023-09-08T06:31:29;7.38;;;4.90;;
60979;SDS011;46851;49.160;8.980;2023-09-08T06:33:55;9.27;;;4.70;;
60979;SDS011;46851;49.160;8.980;2023-09-08T06:36:21;9.52;;;5.03;;
60979;SDS011;46851;49.160;8.980;2023-09-08T06:38:47;9.40;;;4.75;;
60979;SDS011;46851;49.160;8.980;2023-09-08T06:41:13;8.50;;;4.80;;
60979;SDS011;46851;49.160;8.980;2023-09-08T06:43:39;6.88;;;4.65;;
60979;SDS011;46851;49.160;8.980;2023-09-08T06:46:05;7.32;;;4.47;;
60979;SDS011;46851;49.160;8.980;2023-09-08T06:48:31;6.63;;;4.82;;
60979;SDS011;46851;49.160;8.980;2023-09-08T06:50:57;6.35;;;4.55;;
60979;SDS011;46851;49.160;8.980;2023-09-08T06:53:23;7.65;;;4.40;;
60979;SDS011;46851;49.160;8.980;2023-09-08T06:55:49;7.28;;;4.82;;
60979;SDS011;46851;49.160;8.980;2023-09-08T06:58:15;5.68;;;3.92;;
60979;SDS011;46851;49.160;8.980;2023-09-08T07:00:42;8.23;;;4.45;;
60979;SDS011;46851;49.160;8.980;2023-09-08T07:03:08;6.72;;;4.13;;
60979;SDS011;46851;49.160;8.980;2023-09-08T07:05:34;9.30;;;5.05;;
60979;SDS011;46851;49.160;8.980;2023-09-08T07:08:00;6.18;;;4.55;;
60979;SDS011;46851;49.160;8.980;2023-09-08T07:22:31;7.75;;;4.25;;
60979;SDS011;46851;49.160;8.980;2023-09-08T07:24:57;5.10;;;4.32;;
60979;SDS011;46851;49.160;8.980;2023-09-08T07:27:23;8.20;;;4.30;;
60979;SDS011;46851;49.160;8.980;2023-09-08T07:29:49;7.25;;;4.60;;
60979;SDS011;46851;49.160;8.980;2023-09-08T07:32:15;5.18;;;3.70;;
60979;SDS011;46851;49.160;8.980;2023-09-08T07:34:41;8.15;;;4.03;;
60979;SDS011;46851;49.160;8.980;2023-09-08T07:37:07;6.93;;;4.18;;
60979;SDS011;46851;49.160;8.980;2023-09-08T07:39:33;6.40;;;4.13;;
60979;SDS011;46851;49.160;8.980;2023-09-08T07:42:00;8.38;;;4.18;;
60979;SDS011;46851;49.160;8.980;2023-09-08T07:44:26;8.38;;;4.10;;
60979;SDS011;46851;49.160;8.980;2023-09-08T07:46:52;6.72;;;3.85;;
60979;SDS011;46851;49.160;8.980;2023-09-08T07:49:20;8.38;;;4.10;;
60979;SDS011;46851;49.160;8.980;2023-09-08T07:51:46;5.50;;;4.07;;
60979;SDS011;46851;49.160;8.980;2023-09-08T07:54:12;4.78;;;4.03;;
60979;SDS011;46851;49.160;8.980;2023-09-08T07:56:38;5.20;;;4.03;;
60979;SDS011;46851;49.160;8.980;2023-09-08T07:59:08;4.80;;;4.03;;
60979;SDS011;46851;49.160;8.980;2023-09-08T08:01:34;6.50;;;3.92;;
60979;SDS011;46851;49.160;8.980;2023-09-08T08:03:59;5.45;;;3.75;;
60979;SDS011;46851;49.160;8.980;2023-09-08T08:06:28;7.20;;;3.92;;
60979;SDS011;46851;49.160;8.980;2023-09-08T08:08:54;6.45;;;3.65;;
60979;SDS011;46851;49.160;8.980;2023-09-08T08:11:21;4.50;;;3.88;;
60979;SDS011;46851;49.160;8.980;2023-09-08T08:13:47;6.80;;;4.07;;
60979;SDS011;46851;49.160;8.980;2023-09-08T08:16:13;11.07;;;3.90;;
60979;SDS011;46851;49.160;8.980;2023-09-08T08:18:39;9.43;;;4.10;;
60979;SDS011;46851;49.160;8.980;2023-09-08T08:21:05;5.97;;;3.50;;
60979;SDS011;46851;49.160;8.980;2023-09-08T08:23:31;4.13;;;3.40;;
60979;SDS011;46851;49.160;8.980;2023-09-08T08:25:58;5.78;;;3.75;;
60979;SDS011;46851;49.160;8.980;2023-09-08T08:28:25;7.55;;;3.80;;
60979;SDS011;46851;49.160;8.980;2023-09-08T08:30:51;9.15;;;3.78;;
60979;SDS011;46851;49.160;8.980;2023-09-08T08:33:17;11.02;;;3.38;;
60979;SDS011;46851;49.160;8.980;2023-09-08T08:35:52;5.30;;;3.78;;
60979;SDS011;46851;49.160;8.980;2023-09-08T08:38:19;28.10;;;6.45;;
60979;SDS011;46851;49.160;8.980;2023-09-08T08:40:45;7.72;;;4.45;;
60979;SDS011;46851;49.160;8.980;2023-09-08T08:43:11;6.35;;;3.78;;
60979;SDS011;46851;49.160;8.980;2023-09-08T08:45:37;5.05;;;3.30;;
60979;SDS011;46851;49.160;8.980;2023-09-08T08:48:07;8.27;;;4.03;;
60979;SDS011;46851;49.160;8.980;2023-09-08T08:50:36;8.30;;;4.28;;
60979;SDS011;46851;49.160;8.980;2023-09-08T08:53:03;6.75;;;4.00;;
60979;SDS011;46851;49.160;8.980;2023-09-08T08:55:30;7.13;;;3.65;;
60979;SDS011;46851;49.160;8.980;2023-09-08T08:58:00;5.32;;;4.25;;
60979;SDS011;46851;49.160;8.980;2023-09-08T09:00:28;7.38;;;4.18;;
60979;SDS011;46851;49.160;8.980;2023-09-08T09:02:54;6.72;;;4.05;;
60979;SDS011;46851;49.160;8.980;2023-09-08T09:05:21;6.30;;;3.90;;
60979;SDS011;46851;49.160;8.980;2023-09-08T09:07:47;6.32;;;3.70;;
60979;SDS011;46851;49.160;8.980;2023-09-08T09:10:14;8.27;;;4.03;;
60979;SDS011;46851;49.160;8.980;2023-09-08T09:12:40;8.18;;;3.80;;
60979;SDS011;46851;49.160;8.980;2023-09-08T09:15:06;5.90;;;3.97;;
60979;SDS011;46851;49.160;8.980;2023-09-08T09:17:33;5.85;;;3.95;;
60979;SDS011;46851;49.160;8.980;2023-09-08T09:22:39;6.05;;;4.32;;
60979;SDS011;46851;49.160;8.980;2023-09-08T09:25:05;7.82;;;4.28;;
60979;SDS011;46851;49.160;8.980;2023-09-08T09:27:32;9.32;;;4.20;;
60979;SDS011;46851;49.160;8.980;2023-09-08T09:30:07;7.40;;;4.32;;
60979;SDS011;46851;49.160;8.980;2023-09-08T09:32:33;7.50;;;4.32;;
60979;SDS011;46851;49.160;8.980;2023-09-08T09:35:00;5.07;;;3.67;;
60979;SDS011;46851;49.160;8.980;2023-09-08T09:37:26;7.70;;;4.35;;
60979;SDS011;46851;49.160;8.980;2023-09-08T09:39:53;6.45;;;3.50;;
60979;SDS011;46851;49.160;8.980;2023-09-08T09:42:19;5.82;;;4.18;;
60979;SDS011;46851;49.160;8.980;2023-09-08T09:44:49;6.28;;;4.30;;
60979;SDS011;46851;49.160;8.980;2023-09-08T09:47:16;9.05;;;3.97;;
60979;SDS011;46851;49.160;8.980;2023-09-08T09:49:42;5.18;;;3.33;;
60979;SDS011;46851;49.160;8.980;2023-09-08T09:52:09;4.63;;;3.55;;
60979;SDS011;46851;49.160;8.980;2023-09-08T09:54:38;6.53;;;3.83;;
60979;SDS011;46851;49.160;8.980;2023-09-08T09:57:04;6.10;;;3.97;;
60979;SDS011;46851;49.160;8.980;2023-09-08T09:59:30;6.20;;;4.05;;
60979;SDS011;46851;49.160;8.980;2023-09-08T10:01:56;6.35;;;3.80;;
60979;SDS011;46851;49.160;8.980;2023-09-08T10:04:23;5.93;;;3.75;;
60979;SDS011;46851;49.160;8.980;2023-09-08T10:06:50;5.03;;;3.55;;
60979;SDS011;46851;49.160;8.980;2023-09-08T10:09:17;5.27;;;3.57;;
60979;SDS011;46851;49.160;8.980;2023-09-08T10:11:47;6.20;;;3.70;;
60979;SDS011;46851;49.160;8.980;2023-09-08T10:14:17;6.45;;;3.70;;
60979;SDS011;46851;49.160;8.980;2023-09-08T10:16:44;7.82;;;3.67;;
60979;SDS011;46851;49.160;8.980;2023-09-08T10:19:14;6.10;;;3.45;;
60979;SDS011;46851;49.160;8.980;2023-09-08T10:21:40;4.70;;;3.28;;
60979;SDS011;46851;49.160;8.980;2023-09-08T10:24:18;4.35;;;3.40;;
60979;SDS011;46851;49.160;8.980;2023-09-08T10:26:51;4.10;;;3.13;;
60979;SDS011;46851;49.160;8.980;2023-09-08T10:29:17;7.78;;;3.70;;
60979;SDS011;46851;49.160;8.980;2023-09-08T10:31:44;4.93;;;3.25;;
60979;SDS011;46851;49.160;8.980;2023-09-08T10:34:10;9.73;;;3.85;;
60979;SDS011;46851;49.160;8.980;2023-09-08T10:36:37;7.55;;;3.60;;
60979;SDS011;46851;49.160;8.980;2023-09-08T10:41:48;5.82;;;3.50;;
60979;SDS011;46851;49.160;8.980;2023-09-08T10:44:14;5.35;;;3.20;;
60979;SDS011;46851;49.160;8.980;2023-09-08T10:46:40;4.35;;;3.42;;
60979;SDS011;46851;49.160;8.980;2023-09-08T10:49:06;6.45;;;3.50;;
60979;SDS011;46851;49.160;8.980;2023-09-08T10:51:33;6.78;;;3.47;;
60979;SDS011;46851;49.160;8.980;2023-09-08T10:54:02;6.15;;;3.33;;
60979;SDS011;46851;49.160;8.980;2023-09-08T10:56:47;7.82;;;3.60;;
60979;SDS011;46851;49.160;8.980;2023-09-08T10:59:16;4.95;;;3.50;;
60979;SDS011;46851;49.160;8.980;2023-09-08T11:01:42;7.40;;;3.55;;
60979;SDS011;46851;49.160;8.980;2023-09-08T11:04:08;5.30;;;3.67;;
60979;SDS011;46851;49.160;8.980;2023-09-08T11:06:36;6.20;;;3.45;;
60979;SDS011;46851;49.160;8.980;2023-09-08T11:09:06;5.32;;;3.80;;
60979;SDS011;46851;49.160;8.980;2023-09-08T11:11:32;5.40;;;3.72;;
60979;SDS011;46851;49.160;8.980;2023-09-08T11:13:59;7.28;;;3.78;;
60979;SDS011;46851;49.160;8.980;2023-09-08T11:16:25;4.72;;;3.78;;
60979;SDS011;46851;49.160;8.980;2023-09-08T11:18:54;8.30;;;4.15;;
60979;SDS011;46851;49.160;8.980;2023-09-08T11:21:20;6.63;;;3.97;;
60979;SDS011;46851;49.160;8.980;2023-09-08T11:23:46;5.28;;;3.88;;
60979;SDS011;46851;49.160;8.980;2023-09-08T11:26:13;4.32;;;3.25;;
60979;SDS011;46851;49.160;8.980;2023-09-08T11:28:39;6.18;;;3.67;;
60979;SDS011;46851;49.160;8.980;2023-09-08T11:31:06;5.60;;;3.38;;
60979;SDS011;46851;49.160;8.980;2023-09-08T11:33:33;8.82;;;3.47;;
60979;SDS011;46851;49.160;8.980;2023-09-08T11:36:10;6.00;;;4.20;;
60979;SDS011;46851;49.160;8.980;2023-09-08T11:38:37;5.93;;;4.00;;
60979;SDS011;46851;49.160;8.980;2023-09-08T11:41:03;6.50;;;3.90;;
60979;SDS011;46851;49.160;8.980;2023-09-08T11:43:29;5.38;;;3.67;;
60979;SDS011;46851;49.160;8.980;2023-09-08T11:45:57;6.32;;;4.00;;
60979;SDS011;46851;49.160;8.980;2023-09-08T11:48:24;7.25;;;3.70;;
60979;SDS011;46851;49.160;8.980;2023-09-08T11:50:53;8.27;;;4.25;;
60979;SDS011;46851;49.160;8.980;2023-09-08T11:55:45;7.35;;;3.40;;
60979;SDS011;46851;49.160;8.980;2023-09-08T11:58:12;7.53;;;4.00;;
60979;SDS011;46851;49.160;8.980;2023-09-08T12:00:38;6.22;;;4.00;;
60979;SDS011;46851;49.160;8.980;2023-09-08T12:03:11;8.98;;;3.97;;
60979;SDS011;46851;49.160;8.980;2023-09-08T12:05:38;9.60;;;4.00;;
60979;SDS011;46851;49.160;8.980;2023-09-08T12:08:04;8.55;;;4.07;;
60979;SDS011;46851;49.160;8.980;2023-09-08T12:10:30;8.90;;;4.40;;
60979;SDS011;46851;49.160;8.980;2023-09-08T12:13:03;5.57;;;3.97;;
60979;SDS011;46851;49.160;8.980;2023-09-08T12:15:39;5.20;;;4.07;;
60979;SDS011;46851;49.160;8.980;2023-09-08T12:18:09;4.78;;;3.55;;
60979;SDS011;46851;49.160;8.980;2023-09-08T12:20:36;6.32;;;3.90;;
60979;SDS011;46851;49.160;8.980;2023-09-08T12:23:03;5.20;;;3.80;;
60979;SDS011;46851;49.160;8.980;2023-09-08T12:25:30;4.78;;;4.15;;
60979;SDS011;46851;49.160;8.980;2023-09-08T12:28:00;8.13;;;4.30;;
60979;SDS011;46851;49.160;8.980;2023-09-08T12:30:26;7.25;;;3.67;;
60979;SDS011;46851;49.160;8.980;2023-09-08T12:32:58;8.93;;;4.00;;
60979;SDS011;46851;49.160;8.980;2023-09-08T12:35:24;5.63;;;3.72;;
60979;SDS011;46851;49.160;8.980;2023-09-08T12:37:56;6.38;;;3.67;;
60979;SDS011;46851;49.160;8.980;2023-09-08T12:40:24;5.65;;;3.75;;
60979;SDS011;46851;49.160;8.980;2023-09-08T12:42:50;11.05;;;4.53;;
60979;SDS011;46851;49.160;8.980;2023-09-08T12:45:16;7.10;;;3.55;;
60979;SDS011;46851;49.160;8.980;2023-09-08T12:47:42;6.72;;;4.95;;
60979;SDS011;46851;49.160;8.980;2023-09-08T12:50:08;6.30;;;3.70;;
60979;SDS011;46851;49.160;8.980;2023-09-08T12:52:34;5.93;;;4.03;;
60979;SDS011;46851;49.160;8.980;2023-09-08T12:55:00;9.23;;;6.82;;
60979;SDS011;46851;49.160;8.980;2023-09-08T12:57:27;6.07;;;3.55;;
60979;SDS011;46851;49.160;8.980;2023-09-08T12:59:53;6.43;;;3.70;;
60979;SDS011;46851;49.160;8.980;2023-09-08T13:02:19;4.50;;;3.25;;
60979;SDS011;46851;49.160;8.980;2023-09-08T13:04:46;7.25;;;3.55;;
60979;SDS011;46851;49.160;8.980;2023-09-08T13:07:14;5.63;;;3.88;;
60979;SDS011;46851;49.160;8.980;2023-09-08T13:09:40;7.05;;;3.80;;
60979;SDS011;46851;49.160;8.980;2023-09-08T13:12:06;8.32;;;4.43;;
60979;SDS011;46851;49.160;8.980;2023-09-08T13:14:34;8.27;;;4.05;;
60979;SDS011;46851;49.160;8.980;2023-09-08T13:17:00;7.97;;;3.85;;
60979;SDS011;46851;49.160;8.980;2023-09-08T13:19:26;5.43;;;3.92;;
60979;SDS011;46851;49.160;8.980;2023-09-08T13:21:52;6.18;;;4.00;;
60979;SDS011;46851;49.160;8.980;2023-09-08T13:24:18;5.90;;;4.03;;
60979;SDS011;46851;49.160;8.980;2023-09-08T13:26:46;5.00;;;3.83;;
60979;SDS011;46851;49.160;8.980;2023-09-08T13:29:12;6.03;;;3.63;;
60979;SDS011;46851;49.160;8.980;2023-09-08T13:31:38;6.55;;;3.75;;
60979;SDS011;46851;49.160;8.980;2023-09-08T13:34:04;7.95;;;4.25;;
60979;SDS011;46851;49.160;8.980;2023-09-08T13:36:31;7.78;;;4.32;;
60979;SDS011;46851;49.160;8.980;2023-09-08T13:38:57;4.78;;;3.72;;
60979;SDS011;46851;49.160;8.980;2023-09-08T13:41:23;5.75;;;3.72;;
60979;SDS011;46851;49.160;8.980;2023-09-08T13:43:49;6.57;;;3.97;;
60979;SDS011;46851;49.160;8.980;2023-09-08T13:46:16;5.50;;;4.10;;
60979;SDS011;46851;49.160;8.980;2023-09-08T13:48:42;5.47;;;3.65;;
60979;SDS011;46851;49.160;8.980;2023-09-08T13:51:08;5.00;;;3.80;;
60979;SDS011;46851;49.160;8.980;2023-09-08T13:53:34;9.32;;;4.15;;
60979;SDS011;46851;49.160;8.980;2023-09-08T13:56:00;5.55;;;4.03;;
60979;SDS011;46851;49.160;8.980;2023-09-08T13:58:27;5.13;;;3.78;;
60979;SDS011;46851;49.160;8.980;2023-09-08T14:00:53;5.90;;;3.58;;
60979;SDS011;46851;49.160;8.980;2023-09-08T14:03:19;4.75;;;3.88;;
60979;SDS011;46851;49.160;8.980;2023-09-08T14:05:45;8.18;;;3.95;;
60979;SDS011;46851;49.160;8.980;2023-09-08T14:08:11;10.73;;;5.60;;
60979;SDS011;46851;49.160;8.980;2023-09-08T14:10:37;4.60;;;3.50;;
60979;SDS011;46851;49.160;8.980;2023-09-08T14:13:03;11.52;;;4.13;;
60979;SDS011;46851;49.160;8.980;2023-09-08T14:15:29;11.15;;;4.10;;
60979;SDS011;46851;49.160;8.980;2023-09-08T14:17:55;6.28;;;3.97;;
60979;SDS011;46851;49.160;8.980;2023-09-08T14:20:21;9.73;;;4.18;;
60979;SDS011;46851;49.160;8.980;2023-09-08T14:22:47;8.10;;;3.80;;
60979;SDS011;46851;49.160;8.980;2023-09-08T14:25:13;6.07;;;4.10;;
60979;SDS011;46851;49.160;8.980;2023-09-08T14:27:39;6.65;;;3.70;;
60979;SDS011;46851;49.160;8.980;2023-09-08T14:30:06;5.75;;;3.80;;
60979;SDS011;46851;49.160;8.980;2023-09-08T14:32:32;6.57;;;3.90;;
60979;SDS011;46851;49.160;8.980;2023-09-08T14:34:58;4.57;;;3.95;;
60979;SDS011;46851;49.160;8.980;2023-09-08T14:37:24;5.03;;;3.40;;
60979;SDS011;46851;49.160;8.980;2023-09-08T14:39:50;4.78;;;3.40;;
60979;SDS011;46851;49.160;8.980;2023-09-08T14:42:16;6.50;;;4.22;;
60979;SDS011;46851;49.160;8.980;2023-09-08T14:44:42;9.18;;;4.05;;
60979;SDS011;46851;49.160;8.980;2023-09-08T14:47:08;5.63;;;3.70;;
60979;SDS011;46851;49.160;8.980;2023-09-08T14:49:34;6.43;;;3.90;;
60979;SDS011;46851;49.160;8.980;2023-09-08T14:52:00;5.47;;;3.53;;
60979;SDS011;46851;49.160;8.980;2023-09-08T14:54:26;5.90;;;3.50;;
60979;SDS011;46851;49.160;8.980;2023-09-08T14:56:53;7.45;;;3.83;;
60979;SDS011;46851;49.160;8.980;2023-09-08T14:59:19;6.47;;;3.88;;
60979;SDS011;46851;49.160;8.980;2023-09-08T15:01:45;12.38;;;5.43;;
60979;SDS011;46851;49.160;8.980;2023-09-08T15:04:11;7.68;;;3.92;;